Time;durP1;ratioP1;P1;durP2;ratioP2;P2;SDS_P1;SDS_P2;PMS_P1;PMS_P2;Temp;Humidity;BMP_temperature;BMP_pressure;BME280_temperature;BME280_humidity;BME280_pressure;Samples;Min_cycle;Max_cycle;Signal;HPM_P1;HPM_P2
2023/01/17 00:01:47;;;;;;;0.50;0.50;;;;;;;;;;5032956;28;20485;-76
2023/01/17 00:09:53;;;;;;;0.60;0.30;;;;;;;;;;4994831;28;20488;-77
2023/01/17 00:12:20;;;;;;;0.90;0.60;;;;;;;;;;5033029;28;20447;-77
2023/01/17 00:14:47;;;;;;;0.40;0.30;;;;;;;;;;5032917;28;20461;-78
2023/01/17 00:17:14;;;;;;;0.87;0.60;;;;;;;;;;5033264;28;20450;-80
2023/01/17 01:34:39;;;;;;;1.17;0.90;;;;;;;;;;5035676;28;20527;-82
2023/01/17 01:37:06;;;;;;;0.97;0.50;;;;;;;;;;5034439;28;20526;-82
2023/01/17 01:39:34;;;;;;;0.60;0.50;;;;;;;;;;5035509;28;20447;-82
2023/01/17 01:42:01;;;;;;;0.70;0.40;;;;;;;;;;5035455;28;20939;-84
2023/01/17 01:44:46;;;;;;;0.63;0.53;;;1.20;99.90;;;;;;5035307;28;20448;-83
2023/01/17 01:47:22;;;;;;;1.90;0.93;;;1.20;99.90;;;;;;5035408;28;20458;-81
2023/01/17 01:49:49;;;;;;;0.87;0.70;;;;;;;;;;5035355;28;20498;-82
2023/01/17 01:52:16;;;;;;;0.83;0.47;;;;;;;;;;5034061;28;20799;-82
2023/01/17 01:54:47;;;;;;;0.80;0.50;;;;;;;;;;5035167;28;20982;-81
2023/01/17 01:57:18;;;;;;;1.43;0.83;;;1.20;99.90;;;;;;5035378;28;20821;-81
2023/01/17 01:59:46;;;;;;;1.40;0.70;;;;;;;;;;5035008;28;20447;-82
2023/01/17 02:02:14;;;;;;;0.60;0.60;;;;;;;;;;5035191;28;20451;-81
2023/01/17 02:04:41;;;;;;;1.93;0.70;;;;;;;;;;5035161;28;20462;-81
2023/01/17 02:07:11;;;;;;;0.70;0.60;;;;;;;;;;5033972;28;20811;-81
2023/01/17 02:09:40;;;;;;;0.50;0.50;;;;;;;;;;5034879;28;20487;-82
2023/01/17 02:12:09;;;;;;;1.07;0.70;;;1.20;99.90;;;;;;5034875;28;20981;-82
2023/01/17 02:14:36;;;;;;;1.33;0.70;;;;;;;;;;5035027;28;20447;-82
2023/01/17 02:17:18;;;;;;;3.20;0.60;;;1.20;99.90;;;;;;5034932;28;20828;-82
2023/01/17 02:20:23;;;;;;;1.13;0.57;;;1.30;99.90;;;;;;5034399;28;20451;-82
2023/01/17 02:23:31;;;;;;;3.73;0.77;;;1.30;99.90;;;;;;5023832;28;20493;-82
2023/01/17 02:26:33;;;;;;;1.00;0.57;;;1.20;99.90;;;;;;5034542;28;20460;-82
2023/01/17 02:29:24;;;;;;;1.03;0.93;;;1.20;99.90;;;;;;5027750;28;20459;-82
2023/01/17 02:31:55;;;;;;;0.40;0.40;;;;;;;;;;5034629;28;20796;-82
2023/01/17 02:34:25;;;;;;;0.87;0.73;;;;;;;;;;5034427;28;20467;-82
2023/01/17 02:37:00;;;;;;;1.37;0.73;;;1.20;99.90;;;;;;5033175;28;20458;-82
2023/01/17 02:39:34;;;;;;;1.03;0.70;;;1.30;99.90;;;;;;5034488;28;20450;-82
2023/01/17 02:42:04;;;;;;;0.73;0.60;;;1.30;99.90;;;;;;5034426;28;20443;-82
2023/01/17 02:44:40;;;;;;;1.17;0.77;;;1.30;99.90;;;;;;5034468;28;20451;-83
2023/01/17 02:47:22;;;;;;;5.00;1.10;;;1.30;99.90;;;;;;5034110;28;20443;-83
2023/01/17 02:49:49;;;;;;;3.27;0.80;;;;;;;;;;5034232;28;20849;-82
2023/01/17 02:52:30;;;;;;;1.93;1.00;;;1.30;99.90;;;;;;5032972;28;20474;-81
2023/01/17 02:55:13;;;;;;;2.23;0.80;;;1.30;99.90;;;;;;5033865;28;20447;-83
2023/01/17 02:57:54;;;;;;;1.90;0.80;;;1.40;99.90;;;;;;5034105;28;20470;-83
2023/01/17 03:00:26;;;;;;;0.80;0.70;;;1.40;99.90;;;;;;5031374;28;20486;-82
2023/01/17 03:03:00;;;;;;;1.47;0.77;;;1.30;99.90;;;;;;5034023;28;20474;-83
2023/01/17 03:05:33;;;;;;;4.77;1.20;;;1.40;99.90;;;;;;5033777;28;20440;-83
2023/01/17 03:08:02;;;;;;;1.10;0.70;;;1.40;99.90;;;;;;5032720;28;20444;-83
2023/01/17 03:10:30;;;;;;;0.90;0.70;;;;;;;;;;5034023;28;20487;-83
2023/01/17 03:12:58;;;;;;;2.20;0.70;;;1.40;99.90;;;;;;5034004;28;20457;-82
2023/01/17 03:15:25;;;;;;;0.97;0.87;;;;;;;;;;5033951;28;20458;-82
2023/01/17 03:17:55;;;;;;;1.00;0.70;;;1.30;99.90;;;;;;5033851;28;20491;-83
2023/01/17 03:20:23;;;;;;;2.00;0.77;;;;;;;;;;5033714;28;20458;-83
2023/01/17 03:22:50;;;;;;;4.07;1.67;;;;;;;;;;5033341;28;20454;-83
2023/01/17 03:25:17;;;;;;;1.00;0.80;;;;;;;;;;5031508;28;20817;-82
2023/01/17 03:27:44;;;;;;;0.90;0.80;;;;;;;;;;5033505;28;20455;-82
2023/01/17 03:30:12;;;;;;;2.53;1.47;;;1.30;99.90;;;;;;5033665;28;20487;-82
2023/01/17 03:32:39;;;;;;;2.00;1.20;;;;;;;;;;5033533;28;20466;-82
2023/01/17 03:35:07;;;;;;;2.60;1.10;;;;;;;;;;5033798;28;20450;-83
2023/01/17 03:37:35;;;;;;;3.70;0.97;;;;;;;;;;5032616;28;20451;-83
2023/01/17 03:40:02;;;;;;;1.37;1.10;;;;;;;;;;5033521;28;20467;-83
2023/01/17 03:42:29;;;;;;;0.90;0.83;;;;;;;;;;5033783;28;20487;-82
2023/01/17 03:44:56;;;;;;;0.40;0.30;;;;;;;;;;5033615;28;20459;-81
2023/01/17 03:47:23;;;;;;;0.40;0.20;;;;;;;;;;5033249;28;20462;-82
2023/01/17 03:49:51;;;;;;;0.50;0.27;;;;;;;;;;5033486;28;20448;-82
2023/01/17 03:52:18;;;;;;;0.90;0.60;;;;;;;;;;5032308;28;20493;-82
2023/01/17 03:54:47;;;;;;;0.50;0.50;;;;;;;;;;5033457;28;20447;-83
2023/01/17 03:57:14;;;;;;;1.17;0.80;;;;;;;;;;5033590;28;20447;-83
2023/01/17 03:59:41;;;;;;;1.90;0.67;;;;;;;;;;5033284;28;20443;-82
2023/01/17 04:02:08;;;;;;;0.57;0.50;;;;;;;;;;5033424;28;20443;-83
2023/01/17 04:04:35;;;;;;;0.60;0.50;;;;;;;;;;5033490;28;20455;-82
2023/01/17 04:07:02;;;;;;;0.90;0.80;;;;;;;;;;5032467;28;20455;-83
2023/01/17 04:09:32;;;;;;;0.93;0.70;;;;;;;;;;5033502;28;20451;-82
2023/01/17 04:12:01;;;;;;;2.90;1.00;;;;;;;;;;5033265;28;20593;-83
2023/01/17 04:14:28;;;;;;;0.90;0.67;;;;;;;;;;5033148;28;20505;-82
2023/01/17 04:16:55;;;;;;;2.10;1.37;;;;;;;;;;5032976;28;20447;-83
2023/01/17 04:19:22;;;;;;;0.63;0.60;;;;;;;;;;5032923;28;20458;-83
2023/01/17 04:21:49;;;;;;;0.80;0.70;;;;;;;;;;5031682;28;20958;-82
2023/01/17 04:24:16;;;;;;;1.33;0.70;;;;;;;;;;5032904;28;20470;-82
2023/01/17 04:26:43;;;;;;;1.47;0.93;;;;;;;;;;5032905;28;20458;-83
2023/01/17 04:29:12;;;;;;;2.97;0.90;;;;;;;;;;5032728;28;20470;-83
2023/01/17 04:31:39;;;;;;;0.60;0.53;;;;;;;;;;5030315;28;20494;-82
2023/01/17 04:34:06;;;;;;;1.90;0.80;;;;;;;;;;5032739;28;20816;-82
2023/01/17 04:36:33;;;;;;;1.20;0.90;;;;;;;;;;5031498;28;21266;-83
2023/01/17 04:39:00;;;;;;;1.17;0.83;;;;;;;;;;5032679;28;20448;-82
2023/01/17 04:41:27;;;;;;;1.27;1.17;;;;;;;;;;5032552;28;20462;-82
2023/01/17 04:43:54;;;;;;;1.00;0.60;;;;;;;;;;5032470;28;20458;-83
2023/01/17 04:46:22;;;;;;;0.70;0.57;;;;;;;;;;5032564;28;20459;-83
2023/01/17 04:48:50;;;;;;;0.70;0.60;;;;;;;;;;5032839;28;20455;-83
2023/01/17 04:51:17;;;;;;;1.37;1.27;;;;;;;;;;5031559;28;20495;-82
2023/01/17 04:53:44;;;;;;;0.70;0.70;;;;;;;;;;5032566;28;20467;-82
2023/01/17 04:56:11;;;;;;;1.70;1.00;;;;;;;;;;5032492;28;20447;-82
2023/01/17 04:58:38;;;;;;;1.47;1.27;;;;;;;;;;5032448;28;20443;-82
2023/01/17 05:01:06;;;;;;;2.20;1.40;;;0.60;99.90;;;;;;5035059;28;20490;-83
2023/01/17 05:03:35;;;;;;;0.80;0.80;;;;;;;;;;5034928;28;20447;-83
2023/01/17 05:06:02;;;;;;;2.37;1.47;;;;;;;;;;5036246;28;20443;-83
2023/01/17 05:08:29;;;;;;;3.13;1.13;;;;;;;;;;5034876;28;20455;-83
2023/01/17 05:10:56;;;;;;;1.30;1.00;;;;;;;;;;5035556;28;20493;-83
2023/01/17 05:13:23;;;;;;;2.97;1.13;;;;;;;;;;5036156;28;20451;-82
2023/01/17 05:15:50;;;;;;;4.27;1.10;;;;;;;;;;5036035;28;20451;-82
2023/01/17 05:18:18;;;;;;;1.00;0.90;;;0.40;99.90;;;;;;5035899;28;20494;-82
2023/01/17 05:20:47;;;;;;;1.90;1.20;;;;;;;;;;5035935;28;20459;-83
2023/01/17 05:23:14;;;;;;;1.10;1.00;;;;;;;;;;5034605;28;20459;-82
2023/01/17 05:25:43;;;;;;;1.50;1.07;;;;;;;;;;5036776;28;20451;-82
2023/01/17 05:28:10;;;;;;;1.30;0.90;;;0.60;99.90;;;;;;5035801;28;20479;-82
2023/01/17 05:30:37;;;;;;;1.93;0.90;;;;;;;;;;5035689;28;20490;-83
2023/01/17 05:33:04;;;;;;;2.40;1.20;;;;;;;;;;5035716;28;20462;-82
2023/01/17 05:35:32;;;;;;;1.63;0.77;;;;;;;;;;5035820;28;20443;-83
2023/01/17 05:38:01;;;;;;;1.87;1.10;;;;;;;;;;5034460;28;20456;-82
2023/01/17 05:40:29;;;;;;;1.33;0.83;;;;;;;;;;5035640;28;20447;-83
2023/01/17 05:42:57;;;;;;;1.30;1.20;;;;;;;;;;5035573;28;20458;-83
2023/01/17 05:45:27;;;;;;;2.50;1.00;;;0.80;99.90;;;;;;5035587;28;20455;-83
2023/01/17 05:47:55;;;;;;;4.20;1.90;;;0.80;99.90;;;;;;5035498;28;20447;-83
2023/01/17 05:50:23;;;;;;;3.90;1.30;;;0.80;99.90;;;;;;5035402;28;20809;-82
2023/01/17 05:52:51;;;;;;;5.70;2.50;;;0.80;99.90;;;;;;5034010;28;20479;-84
2023/01/17 05:55:20;;;;;;;2.23;1.50;;;;;;;;;;5035422;28;20447;-84
2023/01/17 05:57:47;;;;;;;5.63;1.73;;;;;;;;;;5035318;28;20452;-83
2023/01/17 06:00:15;;;;;;;4.70;1.60;;;;;;;;;;5035149;28;20471;-84
2023/01/17 06:02:42;;;;;;;4.17;1.47;;;;;;;;;;5035107;28;20457;-84
2023/01/17 06:05:10;;;;;;;1.53;1.43;;;;;;;;;;5035016;28;20957;-83
2023/01/17 06:07:38;;;;;;;2.90;1.60;;;;;;;;;;5033988;28;20454;-83
2023/01/17 06:10:05;;;;;;;2.07;1.43;;;;;;;;;;5035151;28;20447;-83
2023/01/17 06:12:34;;;;;;;8.10;3.87;;;;;;;;;;5034595;28;20499;-83
2023/01/17 06:15:01;;;;;;;5.60;2.60;;;;;;;;;;5034873;28;20460;-83
2023/01/17 06:17:28;;;;;;;6.63;1.87;;;;;;;;;;5035080;28;20455;-83
2023/01/17 06:19:55;;;;;;;4.97;2.07;;;;;;;;;;5034887;28;20451;-83
2023/01/17 06:22:22;;;;;;;3.67;2.00;;;;;;;;;;5033786;28;20775;-83
2023/01/17 06:24:49;;;;;;;2.73;1.80;;;;;;;;;;5034859;28;20802;-83
2023/01/17 06:27:16;;;;;;;3.97;2.67;;;;;;;;;;5034813;28;20450;-83
2023/01/17 06:29:45;;;;;;;2.73;1.90;;;;;;;;;;5034769;28;20440;-83
2023/01/17 06:32:12;;;;;;;5.97;1.90;;;;;;;;;;5034531;28;20502;-82
2023/01/17 06:34:40;;;;;;;6.77;1.50;;;;;;;;;;5034630;28;20813;-83
2023/01/17 06:37:07;;;;;;;2.50;1.47;;;;;;;;;;5033411;28;20530;-83
2023/01/17 06:39:34;;;;;;;2.90;1.87;;;;;;;;;;5034498;28;20455;-83
2023/01/17 06:42:01;;;;;;;4.00;1.60;;;;;;;;;;5034561;28;20455;-83
2023/01/17 06:44:28;;;;;;;1.70;1.33;;;;;;;;;;5034436;28;20451;-83
2023/01/17 06:46:56;;;;;;;5.23;1.90;;;;;;;;;;5034359;28;20448;-83
2023/01/17 06:49:23;;;;;;;2.53;1.23;;;;;;;;;;5034235;28;20456;-83
2023/01/17 06:51:51;;;;;;;2.90;1.80;;;;;;;;;;5032980;28;20505;-84
2023/01/17 06:54:18;;;;;;;3.70;1.87;;;;;;;;;;5034351;28;20451;-83
2023/01/17 06:56:45;;;;;;;2.03;1.30;;;;;;;;;;5034313;28;20470;-83
2023/01/17 06:59:12;;;;;;;2.97;1.93;;;;;;;;;;5034169;28;20455;-83
2023/01/17 07:01:40;;;;;;;5.97;2.27;;;;;;;;;;5033747;28;20490;-83
2023/01/17 07:04:08;;;;;;;3.10;1.77;;;;;;;;;;5033978;28;20986;-83
2023/01/17 07:06:36;;;;;;;2.83;1.93;;;;;;;;;;5032851;28;20451;-83
2023/01/17 07:09:03;;;;;;;2.60;1.50;;;;;;;;;;5034022;28;20456;-83
2023/01/17 07:11:31;;;;;;;3.90;2.30;;;;;;;;;;5033945;28;20855;-83
2023/01/17 07:13:58;;;;;;;4.93;2.20;;;;;;;;;;5033835;28;20801;-83
2023/01/17 07:16:25;;;;;;;3.23;2.57;;;;;;;;;;5033733;28;20448;-83
2023/01/17 07:18:53;;;;;;;6.20;2.87;;;;;;;;;;5033731;28;20796;-87
2023/01/17 07:21:22;;;;;;;4.00;2.23;;;;;;;;;;5032881;28;20455;-83
2023/01/17 07:23:49;;;;;;;5.00;2.53;;;;;;;;;;5033008;28;20454;-84
2023/01/17 07:26:16;;;;;;;4.17;2.50;;;;;;;;;;5033854;28;20470;-84
2023/01/17 07:28:43;;;;;;;2.80;2.07;;;;;;;;;;5033781;28;20452;-84
2023/01/17 07:31:10;;;;;;;4.63;2.80;;;;;;;;;;5033275;28;20861;-83
2023/01/17 07:33:37;;;;;;;3.50;2.80;;;;;;;;;;5033630;28;20443;-83
2023/01/17 07:36:06;;;;;;;4.90;2.27;;;;;;;;;;5033579;28;20474;-88
2023/01/17 07:38:34;;;;;;;5.00;2.40;;;;;;;;;;5032140;28;20517;-85
2023/01/17 07:41:01;;;;;;;5.77;2.43;;;;;;;;;;5033675;28;20459;-84
2023/01/17 07:43:28;;;;;;;2.70;2.00;;;;;;;;;;5033443;28;20447;-85
2023/01/17 07:45:55;;;;;;;8.20;3.57;;;;;;;;;;5033679;28;20443;-86
2023/01/17 07:48:24;;;;;;;6.00;3.37;;;0.50;99.90;;;;;;5033613;28;20451;-84
2023/01/17 07:50:55;;;;;;;13.30;10.57;;;;;;;;;;5033549;28;20470;-84
2023/01/17 07:53:23;;;;;;;9.73;7.77;;;;;;;;;;5032441;28;20460;-84
2023/01/17 07:55:51;;;;;;;7.40;5.07;;;;;;;;;;5040224;28;20946;-83
2023/01/17 07:58:18;;;;;;;7.93;4.00;;;;;;;;;;5042080;28;20831;-83
2023/01/17 08:00:45;;;;;;;7.20;2.50;;;;;;;;;;5033882;28;20487;-85
2023/01/17 08:03:14;;;;;;;6.83;3.93;;;0.70;99.90;;;;;;5033216;28;20455;-84
2023/01/17 08:05:42;;;;;;;5.20;2.40;;;;;;;;;;5033140;28;20458;-84
2023/01/17 08:08:09;;;;;;;1.63;1.47;;;;;;;;;;5031809;28;20820;-84
2023/01/17 08:10:36;;;;;;;2.13;1.97;;;;;;;;;;5033131;28;20448;-83
2023/01/17 08:13:04;;;;;;;3.00;2.10;;;;;;;;;;5032651;28;20494;-85
2023/01/17 08:15:31;;;;;;;9.50;3.20;;;;;;;;;;5033040;28;20451;-81
2023/01/17 08:17:59;;;;;;;3.17;2.60;;;;;;;;;;5032883;28;20443;-81
2023/01/17 08:20:26;;;;;;;6.57;4.10;;;0.90;99.90;;;;;;5032988;28;20439;-79
2023/01/17 08:22:54;;;;;;;6.97;3.37;;;1.60;99.90;;;;;;5031528;28;20946;-77
2023/01/17 08:25:21;;;;;;;4.63;3.40;;;;;;;;;;5032947;28;20448;-78
2023/01/17 08:27:48;;;;;;;4.80;3.57;;;;;;;;;;5032926;28;20454;-79
2023/01/17 08:30:17;;;;;;;4.73;3.53;;;2.10;99.90;;;;;;5032916;28;20443;-79
2023/01/17 08:32:44;;;;;;;6.47;2.53;;;;;;;;;;5032664;28;20986;-79
2023/01/17 08:35:11;;;;;;;4.67;2.37;;;;;;;;;;5035691;28;20451;-79
2023/01/17 08:37:38;;;;;;;1.50;1.30;;;;;;;;;;5035497;28;20459;-78
2023/01/17 08:40:07;;;;;;;2.60;1.73;;;2.60;99.90;;;;;;5036744;28;20439;-81
2023/01/17 08:42:38;;;;;;;6.60;2.03;;;;;;;;;;5036684;28;20501;-81
2023/01/17 08:45:06;;;;;;;3.13;2.33;;;2.50;99.90;;;;;;5036620;28;20455;-80
2023/01/17 08:47:35;;;;;;;2.10;0.80;;;2.50;99.90;;;;;;5036765;28;20455;-80
2023/01/17 08:50:02;;;;;;;2.63;1.27;;;;;;;;;;5036466;28;20455;-80
2023/01/17 08:52:29;;;;;;;2.23;1.40;;;;;;;;;;5035222;28;20502;-81
2023/01/17 08:54:56;;;;;;;2.60;1.60;;;;;;;;;;5036542;28;20958;-83
2023/01/17 08:57:23;;;;;;;10.50;6.60;;;;;;;;;;5036604;28;20454;-81
2023/01/17 08:59:50;;;;;;;8.20;2.30;;;;;;;;;;5035937;28;20447;-82
2023/01/17 09:02:19;;;;;;;2.50;2.07;;;3.80;99.90;;;;;;5036303;28;20475;-81
2023/01/17 09:04:48;;;;;;;4.57;2.40;;;3.60;99.90;;;;;;5035420;28;20454;-85
2023/01/17 09:07:16;;;;;;;2.00;1.73;;;3.90;99.90;;;;;;5034594;28;20454;-81
2023/01/17 09:09:43;;;;;;;2.60;1.93;;;;;;;;;;5036171;28;20458;-81
2023/01/17 09:12:11;;;;;;;3.37;1.63;;;;;;;;;;5036061;28;20490;-85
2023/01/17 09:14:38;;;;;;;4.07;1.97;;;;;;;;;;5036116;28;20451;-81
2023/01/17 09:17:05;;;;;;;2.93;1.73;;;5.80;99.90;;;;;;5035923;28;20455;-81
2023/01/17 09:19:34;;;;;;;1.23;1.13;;;;;;;;;;5036196;28;20467;-80
2023/01/17 09:22:02;;;;;;;5.87;5.40;;;;;;;;;;5034941;28;20494;-86
2023/01/17 09:24:29;;;;;;;4.30;1.70;;;;;;;;;;5036007;28;20454;-85
2023/01/17 09:26:57;;;;;;;2.53;1.93;;;;;;;;;;5035932;28;20454;-79
2023/01/17 09:29:24;;;;;;;2.00;1.60;;;;;;;;;;5035947;28;20454;-79
2023/01/17 09:31:51;;;;;;;18.87;17.27;;;;;;;;;;5035595;28;20494;-81
2023/01/17 09:34:18;;;;;;;4.70;1.37;;;;;;;;;;5035812;28;20455;-81
2023/01/17 09:36:45;;;;;;;2.43;1.97;;;;;;;;;;5034614;28;20817;-82
2023/01/17 09:39:14;;;;;;;3.00;2.13;;;7.40;99.30;;;;;;5035781;28;20813;-82
2023/01/17 09:41:48;;;;;;;6.03;1.80;;;7.20;98.60;;;;;;5035610;28;20459;-82
2023/01/17 09:44:24;;;;;;;3.30;2.00;;;6.90;98.70;;;;;;5035494;28;20462;-81
2023/01/17 09:46:54;;;;;;;2.67;1.90;;;7.30;97.20;;;;;;5034656;28;20458;-82
2023/01/17 09:49:32;;;;;;;1.50;1.40;;;7.90;97.80;;;;;;5035519;28;20459;-82
2023/01/17 09:51:59;;;;;;;3.30;1.37;;;;;;;;;;5034182;28;20487;-82
2023/01/17 09:54:32;;;;;;;2.20;1.53;;;9.20;96.40;;;;;;5035466;28;20447;-82
2023/01/17 09:57:04;;;;;;;2.07;1.73;;;9.50;93.70;;;;;;5035444;28;20452;-81
2023/01/17 09:59:42;;;;;;;3.37;1.37;;;9.50;93.60;;;;;;5035217;28;20452;-80
2023/01/17 10:02:26;;;;;;;2.30;1.57;;;9.30;92.30;;;;;;5035305;28;20451;-81
2023/01/17 10:05:11;;;;;;;3.30;1.73;;;8.50;96.00;;;;;;5035325;28;20800;-81
2023/01/17 10:07:45;;;;;;;9.63;8.67;;;9.10;98.80;;;;;;5033984;28;20444;-81
2023/01/17 10:10:28;;;;;;;3.90;1.57;;;9.10;97.60;;;;;;5033478;28;20439;-81
2023/01/17 10:13:00;;;;;;;2.13;1.30;;;8.80;93.00;;;;;;5035139;28;20490;-81
2023/01/17 10:15:32;;;;;;;2.87;2.67;;;;;;;;;;5034942;28;20973;-81
2023/01/17 10:18:11;;;;;;;4.13;1.37;;;9.60;92.10;;;;;;5034942;28;20456;-81
2023/01/17 10:20:48;;;;;;;1.90;1.70;;;9.70;88.40;;;;;;5034944;28;20443;-82
2023/01/17 10:23:40;;;;;;;1.50;1.40;;;9.60;90.90;;;;;;5033806;28;20486;-80
2023/01/17 10:26:12;;;;;;;1.43;1.33;;;9.40;90.80;;;;;;5030181;28;20460;-81
2023/01/17 10:28:45;;;;;;;2.20;1.43;;;9.60;91.50;;;;;;5034511;28;20454;-80
2023/01/17 10:31:18;;;;;;;2.63;1.10;;;9.40;82.80;;;;;;5034729;28;20506;-82
2023/01/17 10:33:51;;;;;;;7.10;1.60;;;9.30;87.80;;;;;;5033207;28;20495;-81
2023/01/17 10:36:21;;;;;;;3.70;1.57;;;8.20;84.00;;;;;;5033432;28;20484;-79
2023/01/17 10:38:51;;;;;;;1.60;1.20;;;9.30;88.60;;;;;;5034203;28;20455;-80
2023/01/17 10:41:22;;;;;;;1.40;1.30;;;;;;;;;;5034705;28;20454;-80
2023/01/17 10:43:58;;;;;;;1.37;1.07;;;9.70;83.30;;;;;;5034550;28;20459;-82
2023/01/17 10:46:29;;;;;;;2.60;1.20;;;9.10;84.80;;;;;;5034641;28;20447;-82
2023/01/17 10:48:57;;;;;;;2.80;1.83;;;7.90;86.30;;;;;;5034338;28;20452;-82
2023/01/17 10:51:48;;;;;;;3.90;1.50;;;8.40;90.40;;;;;;5033220;28;20478;-81
2023/01/17 10:54:25;;;;;;;2.40;1.57;;;8.80;83.30;;;;;;5034436;28;20451;-81
2023/01/17 10:56:53;;;;;;;3.30;1.60;;;8.40;86.70;;;;;;5034542;28;20435;-81
2023/01/17 10:59:28;;;;;;;3.37;1.30;;;8.80;80.60;;;;;;5034271;28;20447;-81
2023/01/17 11:01:55;;;;;;;1.10;0.90;;;;;;;;;;5034227;28;20979;-81
2023/01/17 11:04:32;;;;;;;1.37;0.70;;;8.70;82.80;;;;;;5034417;28;20804;-81
2023/01/17 11:07:13;;;;;;;3.87;0.70;;;;;;;;;;5032871;28;20439;-81
2023/01/17 11:09:41;;;;;;;2.00;0.73;;;;;;;;;;5034190;28;20931;-81
2023/01/17 11:12:20;;;;;;;7.23;0.90;;;8.40;83.30;;;;;;5034226;28;20825;-81
2023/01/17 11:15:18;;;;;;;1.40;0.60;;;9.20;72.60;;;;;;5034211;28;20454;-81
2023/01/17 11:17:47;;;;;;;1.20;0.90;;;9.10;77.10;;;;;;5025847;28;20550;-80
2023/01/17 11:20:23;;;;;;;1.97;0.70;;;8.30;79.60;;;;;;5033548;28;20458;-80
2023/01/17 11:23:04;;;;;;;1.10;0.90;;;8.50;80.00;;;;;;5032901;28;20443;-80
2023/01/17 11:25:33;;;;;;;2.30;0.90;;;7.70;77.60;;;;;;5033928;28;20447;-79
2023/01/17 11:28:04;;;;;;;4.63;1.00;;;8.10;88.00;;;;;;5033724;28;20454;-80
2023/01/17 11:30:31;;;;;;;2.73;0.90;;;;;;;;;;5033498;28;20443;-80
2023/01/17 11:32:59;;;;;;;0.70;0.50;;;;;;;;;;5033440;28;20495;-81
2023/01/17 11:35:28;;;;;;;2.20;1.03;;;;;;;;;;5033503;28;20452;-83
2023/01/17 11:38:04;;;;;;;3.03;0.80;;;7.50;78.90;;;;;;5032250;28;20455;-81
2023/01/17 11:40:36;;;;;;;1.40;0.87;;;7.10;83.10;;;;;;5033466;28;20800;-78
2023/01/17 11:43:19;;;;;;;2.93;1.03;;;6.20;84.10;;;;;;5033076;28;20448;-81
2023/01/17 11:46:00;;;;;;;2.40;0.90;;;6.30;84.20;;;;;;5033354;28;20443;-81
2023/01/17 11:48:34;;;;;;;3.57;1.47;;;6.80;90.40;;;;;;5033235;28;20444;-81
2023/01/17 11:51:02;;;;;;;1.97;0.73;;;;;;;;;;5033184;28;20458;-80
2023/01/17 11:53:32;;;;;;;7.20;5.70;;;;;;;;;;5031799;28;20501;-81
2023/01/17 11:56:02;;;;;;;2.93;2.43;;;;;;;;;;5033056;28;20454;-80
2023/01/17 11:58:33;;;;;;;14.90;1.67;;;8.00;93.80;;;;;;5033110;28;20451;-80
2023/01/17 12:01:08;;;;;;;2.10;1.63;;;7.00;96.20;;;;;;5032926;28;20483;-81
2023/01/17 12:03:49;;;;;;;4.77;4.37;;;;;;;;;;5033185;28;20438;-81
2023/01/17 12:06:20;;;;;;;12.60;8.70;;;;;;;;;;5032584;28;20791;-80
2023/01/17 12:09:02;;;;;;;7.73;5.30;;;7.90;96.60;;;;;;5032323;28;20451;-81
2023/01/17 12:11:37;;;;;;;3.10;2.80;;;8.10;94.40;;;;;;5033006;28;20435;-81
2023/01/17 12:14:10;;;;;;;6.70;5.87;;;;;;;;;;5032976;28;21040;-80
2023/01/17 12:16:42;;;;;;;10.87;9.83;;;;;;;;;;5032860;28;20440;-81
2023/01/17 12:19:18;;;;;;;8.60;6.30;;;;;;;;;;5032990;28;20945;-83
2023/01/17 12:21:48;;;;;;;11.33;9.00;;;;;;;;;;5031755;28;20448;-80
2023/01/17 12:24:33;;;;;;;29.27;26.37;;;;;;;;;;5032916;28;20448;-80
2023/01/17 12:27:04;;;;;;;28.93;26.33;;;;;;;;;;5032357;28;20462;-81
2023/01/17 12:29:44;;;;;;;22.67;21.00;;;;;;;;;;5032930;28;20451;-79
2023/01/17 12:32:29;;;;;;;3.70;1.03;;;6.50;92.50;;;;;;5032927;28;20455;-79
2023/01/17 12:35:00;;;;;;;1.10;0.93;;;;;;;;;;5032988;28;20458;-82
2023/01/17 12:37:33;;;;;;;3.83;1.10;;;6.40;93.90;;;;;;5031483;28;20867;-80
2023/01/17 12:40:02;;;;;;;8.77;4.13;;;;;;;;;;5032753;28;20458;-79
2023/01/17 12:42:34;;;;;;;5.70;2.83;;;5.90;97.10;;;;;;5032801;28;20452;-79
2023/01/17 12:45:07;;;;;;;2.93;1.00;;;5.80;98.10;;;;;;5032663;28;20988;-83
2023/01/17 12:47:38;;;;;;;1.90;1.40;;;;;;;;;;5032746;28;20443;-79
2023/01/17 12:50:14;;;;;;;1.73;1.20;;;5.60;95.40;;;;;;5032546;28;20475;-82
2023/01/17 12:52:47;;;;;;;4.37;1.60;;;;;;;;;;5031022;28;20442;-87
2023/01/17 12:55:18;;;;;;;3.80;2.27;;;5.70;96.00;;;;;;5032631;28;20478;-82
2023/01/17 12:57:51;;;;;;;3.57;2.43;;;5.40;97.90;;;;;;5032581;28;20510;-79
2023/01/17 13:00:22;;;;;;;3.53;1.73;;;5.40;95.50;;;;;;5032264;28;20479;-83
2023/01/17 13:02:54;;;;;;;3.37;1.17;;;5.30;95.70;;;;;;5032502;28;20474;-79
2023/01/17 13:05:24;;;;;;;1.17;0.77;;;4.90;94.90;;;;;;5032534;28;20451;-78
2023/01/17 13:07:57;;;;;;;2.97;1.80;;;4.50;98.00;;;;;;4970329;28;20927;-80
2023/01/17 13:10:28;;;;;;;0.70;0.60;;;;;;;;;;4971232;28;20446;-80
2023/01/17 13:12:58;;;;;;;1.53;0.93;;;;;;;;;;4971399;28;21036;-78
2023/01/17 13:15:29;;;;;;;1.90;1.40;;;;;;;;;;4971483;28;20461;-81
2023/01/17 13:18:05;;;;;;;2.30;1.10;;;4.40;97.80;;;;;;4971591;28;20446;-80
2023/01/17 13:20:46;;;;;;;1.07;0.83;;;4.30;97.40;;;;;;4971688;28;20454;-82
2023/01/17 13:23:27;;;;;;;4.60;2.80;;;4.30;96.00;;;;;;4973765;28;20456;-79
2023/01/17 13:25:56;;;;;;;0.77;0.77;;;;;;;;;;5000977;28;20440;-78
2023/01/17 13:28:34;;;;;;;2.13;1.13;;;4.50;96.30;;;;;;5035950;28;20941;-80
2023/01/17 13:31:25;;;;;;;1.00;0.60;;;4.60;95.50;;;;;;5027140;28;20451;-80
2023/01/17 13:34:30;;;;;;;3.73;1.53;;;4.40;98.40;;;;;;5014960;28;21018;-80
2023/01/17 13:37:34;;;;;;;0.80;0.60;;;4.50;97.00;;;;;;4996460;28;20460;-80
2023/01/17 13:40:18;;;;;;;3.57;2.73;;;;;;;;;;5015677;28;20448;-79
2023/01/17 13:42:55;;;;;;;4.87;1.10;;;4.70;96.50;;;;;;5015440;28;20820;-79
2023/01/17 13:45:25;;;;;;;1.57;1.07;;;4.80;95.20;;;;;;5015417;28;20459;-81
2023/01/17 13:47:53;;;;;;;1.77;0.73;;;;;;;;;;5015348;28;20452;-79
2023/01/17 13:50:45;;;;;;;3.07;0.57;;;4.50;95.50;;;;;;5015245;28;20841;-80
2023/01/17 13:53:56;;;;;;;4.33;1.27;;;4.60;91.40;;;;;;5013997;28;21014;-80
2023/01/17 13:56:30;;;;;;;2.07;1.13;;;;;;;;;;5015217;28;20452;-78
2023/01/17 13:59:05;;;;;;;2.30;1.07;;;4.40;94.70;;;;;;5014877;28;20916;-78
2023/01/17 14:01:51;;;;;;;2.40;0.60;;;;;;;;;;5015119;28;20485;-79
2023/01/17 14:04:20;;;;;;;3.10;1.23;;;4.30;93.10;;;;;;5015048;28;20456;-78
2023/01/17 14:06:54;;;;;;;8.67;5.90;;;4.20;93.00;;;;;;5013785;28;20963;-79
2023/01/17 14:09:29;;;;;;;1.20;1.03;;;4.20;94.90;;;;;;5014886;28;20453;-80
2023/01/17 14:11:59;;;;;;;2.47;1.77;;;3.90;95.50;;;;;;5014907;28;20459;-79
2023/01/17 14:14:47;;;;;;;2.00;1.17;;;4.20;91.10;;;;;;5014873;28;20514;-79
2023/01/17 14:17:54;;;;;;;2.70;1.30;;;3.80;94.40;;;;;;5014976;28;20453;-81
2023/01/17 14:21:04;;;;;;;1.60;1.43;;;4.00;89.90;;;;;;5014798;28;20452;-79
2023/01/17 14:23:58;;;;;;;1.43;1.10;;;4.00;94.30;;;;;;5013671;28;20854;-78
2023/01/17 14:26:44;;;;;;;2.63;1.47;;;4.00;94.20;;;;;;5014743;28;20515;-81
2023/01/17 14:29:48;;;;;;;0.73;0.73;;;3.90;88.20;;;;;;5014942;28;20456;-81
2023/01/17 14:32:17;;;;;;;1.30;1.17;;;3.90;93.00;;;;;;5012997;28;20459;-80
2023/01/17 14:34:45;;;;;;;12.60;1.53;;;3.90;93.20;;;;;;5014642;28;20498;-80
2023/01/17 14:37:28;;;;;;;1.10;0.73;;;3.70;88.20;;;;;;5013527;28;20451;-81
2023/01/17 14:39:55;;;;;;;2.40;1.03;;;;;;;;;;5014809;28;20543;-80
2023/01/17 14:42:24;;;;;;;4.73;1.00;;;4.20;96.90;;;;;;5014702;28;20455;-84
2023/01/17 14:44:53;;;;;;;1.80;1.40;;;;;;;;;;5014729;28;20457;-79
2023/01/17 14:47:22;;;;;;;4.57;1.53;;;;;;;;;;5014405;28;20444;-79
2023/01/17 14:49:49;;;;;;;4.00;1.23;;;;;;;;;;5014505;28;20468;-78
2023/01/17 14:52:18;;;;;;;2.03;1.23;;;;;;;;;;5013451;28;20452;-79
2023/01/17 14:54:50;;;;;;;5.30;3.17;;;;;;;;;;5014524;28;20500;-80
2023/01/17 14:57:26;;;;;;;1.83;1.40;;;3.60;97.80;;;;;;5014343;28;20452;-80
2023/01/17 15:00:09;;;;;;;1.43;1.00;;;3.70;95.90;;;;;;5014234;28;20499;-80
2023/01/17 15:02:41;;;;;;;4.60;2.73;;;3.60;96.70;;;;;;5014497;28;20449;-79
2023/01/17 15:05:10;;;;;;;3.80;1.80;;;;;;;;;;5014287;28;20460;-81
2023/01/17 15:07:37;;;;;;;8.80;2.53;;;;;;;;;;5012963;28;20440;-80
2023/01/17 15:10:06;;;;;;;2.50;1.40;;;;;;;;;;5014405;28;20823;-79
2023/01/17 15:12:37;;;;;;;9.70;6.73;;;3.60;96.60;;;;;;5014301;28;20459;-80
2023/01/17 15:15:05;;;;;;;6.73;1.67;;;;;;;;;;5014166;28;20587;-79
2023/01/17 15:17:32;;;;;;;3.67;2.40;;;;;;;;;;5014283;28;20801;-80
2023/01/17 15:20:05;;;;;;;3.00;1.87;;;3.60;94.50;;;;;;5013932;28;20452;-79
2023/01/17 15:22:32;;;;;;;1.97;1.20;;;;;;;;;;5013127;28;20890;-85
2023/01/17 15:24:59;;;;;;;3.13;2.67;;;;;;;;;;5013976;28;20460;-79
2023/01/17 15:27:27;;;;;;;2.90;1.30;;;3.50;93.60;;;;;;5013994;28;20453;-79
2023/01/17 15:29:57;;;;;;;5.67;2.00;;;;;;;;;;5013949;28;20448;-79
2023/01/17 15:32:26;;;;;;;12.20;8.27;;;;;;;;;;5013928;28;20453;-80
2023/01/17 15:34:53;;;;;;;15.90;14.30;;;;;;;;;;5010221;28;20491;-79
2023/01/17 15:37:28;;;;;;;2.27;1.93;;;;;;;;;;5011717;28;20452;-78
2023/01/17 15:40:15;;;;;;;4.13;2.00;;;3.30;94.70;;;;;;5012932;28;20526;-79
2023/01/17 15:42:46;;;;;;;6.40;1.90;;;3.20;95.10;;;;;;5013556;28;20444;-78